createdAt,value
2022-09-23T00:00:46.329Z,5.10
2022-09-23T00:03:13.716Z,5.00
2022-09-23T00:05:40.187Z,5.00
2022-09-23T00:08:08.428Z,5.00
2022-09-23T00:10:37.966Z,5.00
2022-09-23T00:13:05.836Z,5.00
2022-09-23T00:15:37.155Z,4.90
2022-09-23T00:18:05.251Z,4.90
2022-09-23T00:20:36.245Z,4.90
2022-09-23T00:23:02.976Z,4.90
2022-09-23T00:25:32.073Z,4.80
2022-09-23T00:27:58.990Z,4.90
2022-09-23T00:30:25.601Z,4.80
2022-09-23T00:32:53.134Z,4.80
2022-09-23T00:35:20.123Z,4.70
2022-09-23T00:37:46.580Z,4.70
2022-09-23T00:40:14.074Z,4.70
2022-09-23T00:42:49.399Z,4.70
2022-09-23T00:45:16.805Z,4.70
2022-09-23T00:47:52.523Z,4.70
2022-09-23T00:50:31.004Z,4.70
2022-09-23T00:53:00.336Z,4.70
2022-09-23T00:55:30.701Z,4.70
2022-09-23T00:58:00.232Z,4.60
2022-09-23T01:00:26.848Z,4.70
2022-09-23T01:02:53.321Z,4.60
2022-09-23T01:05:21.534Z,4.70
2022-09-23T01:07:48.230Z,4.70
2022-09-23T01:10:16.847Z,4.70
2022-09-23T01:12:52.091Z,4.70
2022-09-23T01:15:38.791Z,4.70
2022-09-23T01:18:43.522Z,4.70
2022-09-23T01:21:17.991Z,4.70
2022-09-23T01:24:08.121Z,4.60
2022-09-23T01:26:56.566Z,4.60
2022-09-23T01:29:23.760Z,4.60
2022-09-23T01:32:11.003Z,4.50
2022-09-23T01:35:13.063Z,4.50
2022-09-23T01:38:11.447Z,4.50
2022-09-23T01:40:45.083Z,4.50
2022-09-23T01:43:31.080Z,4.50
2022-09-23T01:46:00.345Z,4.50
2022-09-23T01:48:40.217Z,4.50
2022-09-23T01:51:14.781Z,4.50
2022-09-23T01:53:49.532Z,4.50
2022-09-23T01:56:22.693Z,4.50
2022-09-23T01:59:01.507Z,4.40
2022-09-23T02:01:40.295Z,4.40
2022-09-23T02:04:17.630Z,4.40
2022-09-23T02:06:48.471Z,4.30
2022-09-23T02:09:18.133Z,4.40
2022-09-23T02:11:48.090Z,4.40
2022-09-23T02:14:19.417Z,4.30
2022-09-23T02:16:52.071Z,4.40
2022-09-23T02:19:29.077Z,4.30
2022-09-23T02:22:24.376Z,4.20
2022-09-23T02:24:51.021Z,4.20
2022-09-23T02:28:06.230Z,4.20
2022-09-23T02:30:44.720Z,4.30
2022-09-23T02:33:20.377Z,4.30
2022-09-23T02:35:55.468Z,4.30
2022-09-23T02:38:34.747Z,4.20
2022-09-23T02:41:10.389Z,4.20
2022-09-23T02:43:46.432Z,4.20
2022-09-23T02:46:13.271Z,4.10
2022-09-23T02:48:49.196Z,4.10
2022-09-23T02:51:15.863Z,4.10
2022-09-23T02:53:43.247Z,4.10
2022-09-23T02:56:19.017Z,4.10
2022-09-23T02:58:46.983Z,4.10
2022-09-23T03:01:39.446Z,4.00
2022-09-23T03:04:35.432Z,4.00
2022-09-23T03:07:18.512Z,4.00
2022-09-23T03:09:52.690Z,4.00
2022-09-23T03:12:35.925Z,4.00
2022-09-23T03:15:14.302Z,4.10
2022-09-23T03:17:52.784Z,4.00
2022-09-23T03:20:35.535Z,4.00
2022-09-23T03:23:08.104Z,4.00
2022-09-23T03:25:38.186Z,3.90
2022-09-23T03:28:06.057Z,4.00
2022-09-23T03:30:35.570Z,3.90
2022-09-23T03:33:06.009Z,3.90
2022-09-23T03:35:58.678Z,3.90
2022-09-23T03:38:30.237Z,3.80
2022-09-23T03:41:00.396Z,3.80
2022-09-23T03:43:26.795Z,3.80
2022-09-23T03:45:54.556Z,3.80
2022-09-23T03:48:22.261Z,3.80
2022-09-23T03:50:48.942Z,3.70
2022-09-23T03:53:15.370Z,3.70
2022-09-23T03:55:41.826Z,3.70
2022-09-23T03:58:08.321Z,3.70
2022-09-23T04:00:36.301Z,3.70
2022-09-23T04:03:02.839Z,3.70
2022-09-23T04:05:29.234Z,3.70
2022-09-23T04:07:55.735Z,3.70
2022-09-23T04:10:22.698Z,3.70
2022-09-23T04:12:49.106Z,3.70
2022-09-23T04:15:16.899Z,3.60
2022-09-23T04:17:43.286Z,3.60
2022-09-23T04:20:10.014Z,3.50
2022-09-23T04:22:38.607Z,3.60
2022-09-23T04:25:05.431Z,3.60
2022-09-23T04:27:36.899Z,3.50
2022-09-23T04:30:05.108Z,3.40
2022-09-23T04:32:31.729Z,3.40
2022-09-23T04:34:58.255Z,3.50
2022-09-23T04:37:24.644Z,3.40
2022-09-23T04:39:51.097Z,3.40
2022-09-23T04:42:17.573Z,3.40
2022-09-23T04:44:46.091Z,3.40
2022-09-23T04:47:12.611Z,3.40
2022-09-23T04:49:39.071Z,3.40
2022-09-23T04:52:05.747Z,3.30
2022-09-23T04:54:32.916Z,3.40
2022-09-23T04:56:59.341Z,3.40
2022-09-23T04:59:25.782Z,3.50
2022-09-23T05:01:54.379Z,3.50
2022-09-23T05:04:20.826Z,3.50
2022-09-23T05:06:47.405Z,3.40
2022-09-23T05:09:17.642Z,3.40
2022-09-23T05:11:45.382Z,3.40
2022-09-23T05:14:12.140Z,3.40
2022-09-23T05:16:38.613Z,3.40
2022-09-23T05:19:05.694Z,3.40
2022-09-23T05:21:32.328Z,3.40
2022-09-23T05:24:00.795Z,3.50
2022-09-23T05:26:29.468Z,3.50
2022-09-23T05:28:59.693Z,3.60
2022-09-23T05:31:29.183Z,3.70
2022-09-23T05:33:58.626Z,3.70
2022-09-23T05:36:26.713Z,3.80
2022-09-23T05:38:53.637Z,3.80
2022-09-23T05:41:23.120Z,3.80
2022-09-23T05:43:51.845Z,3.90
2022-09-23T05:46:21.030Z,3.90
2022-09-23T05:48:47.713Z,4.00
2022-09-23T05:51:22.302Z,4.10
2022-09-23T05:53:51.222Z,4.20
2022-09-23T05:56:19.630Z,4.20
2022-09-23T05:58:58.292Z,4.30
2022-09-23T06:01:27.666Z,4.30
2022-09-23T06:03:55.951Z,4.40
2022-09-23T06:06:42.268Z,4.50
2022-09-23T06:09:13.325Z,4.50
2022-09-23T06:11:39.769Z,4.60
2022-09-23T06:14:06.357Z,4.70
2022-09-23T06:16:35.479Z,4.70
2022-09-23T06:19:05.843Z,5.10
2022-09-23T06:21:34.775Z,5.10
2022-09-23T06:24:01.736Z,5.40
2022-09-23T06:26:33.881Z,5.40
2022-09-23T06:29:02.522Z,5.40
2022-09-23T06:31:29.735Z,5.90
2022-09-23T06:34:08.397Z,6.00
2022-09-23T06:36:43.226Z,5.10
2022-09-23T06:39:10.120Z,6.90
2022-09-23T06:41:36.756Z,6.60
2022-09-23T06:44:03.323Z,6.90
2022-09-23T06:46:31.841Z,7.30
2022-09-23T06:48:58.621Z,7.30
2022-09-23T06:51:25.158Z,7.40
2022-09-23T06:53:51.636Z,7.50
2022-09-23T06:56:19.895Z,7.70
2022-09-23T06:58:46.837Z,7.80
2022-09-23T07:01:16.231Z,8.20
2022-09-23T07:03:43.769Z,8.90
2022-09-23T07:06:10.183Z,10.80
2022-09-23T07:08:36.714Z,14.50
2022-09-23T07:11:06.342Z,17.80
2022-09-23T07:13:33.500Z,19.90
2022-09-23T07:16:02.359Z,21.30
2022-09-23T07:18:36.755Z,20.30
2022-09-23T07:21:17.868Z,22.90
2022-09-23T07:23:50.083Z,24.50
2022-09-23T07:26:18.002Z,25.20
2022-09-23T07:28:44.439Z,25.10
2022-09-23T07:31:14.429Z,25.50
2022-09-23T07:33:44.196Z,26.60
2022-09-23T07:36:14.501Z,27.80
2022-09-23T07:38:45.212Z,27.50
2022-09-23T07:41:15.237Z,27.90
2022-09-23T07:43:41.751Z,26.00
2022-09-23T07:46:11.584Z,28.80
2022-09-23T07:48:38.492Z,27.30
2022-09-23T07:51:20.308Z,27.90
2022-09-23T07:53:49.162Z,28.10
2022-09-23T07:56:17.303Z,28.30
2022-09-23T07:58:43.765Z,28.30
2022-09-23T08:01:12.050Z,28.70
2022-09-23T08:03:39.545Z,30.00
2022-09-23T08:06:13.212Z,29.90
2022-09-23T08:08:43.833Z,31.20
2022-09-23T08:11:13.174Z,30.40
2022-09-23T08:13:39.848Z,30.00
2022-09-23T08:16:06.682Z,27.10
2022-09-23T08:18:33.931Z,27.80
2022-09-23T08:21:00.351Z,28.60
2022-09-23T08:23:27.688Z,30.30
2022-09-23T08:26:00.854Z,30.90
2022-09-23T08:28:27.826Z,30.90
2022-09-23T08:30:54.652Z,32.30
2022-09-23T08:33:23.499Z,31.20
2022-09-23T08:35:50.512Z,32.70
2022-09-23T08:38:17.064Z,32.60
2022-09-23T08:40:47.376Z,33.40
2022-09-23T08:43:28.945Z,31.90
2022-09-23T08:45:59.582Z,31.60
2022-09-23T08:48:30.546Z,29.90
2022-09-23T08:51:05.265Z,31.00
2022-09-23T08:53:37.977Z,28.90
2022-09-23T08:56:15.871Z,29.00
2022-09-23T08:59:01.014Z,31.60
2022-09-23T09:01:41.339Z,32.80
2022-09-23T09:04:17.135Z,28.60
2022-09-23T09:06:53.887Z,30.30
2022-09-23T09:09:33.175Z,29.40
2022-09-23T09:12:17.493Z,32.10
2022-09-23T09:15:03.216Z,33.20
2022-09-23T09:17:48.826Z,34.50
2022-09-23T09:20:16.760Z,33.00
2022-09-23T09:22:52.893Z,33.50
2022-09-23T09:25:24.365Z,32.00
2022-09-23T09:27:51.833Z,32.90
2022-09-23T09:30:19.414Z,34.30
2022-09-23T09:32:56.902Z,32.90
2022-09-23T09:35:35.017Z,32.60
2022-09-23T09:38:01.843Z,33.90
2022-09-23T09:40:28.376Z,31.80
2022-09-23T09:42:54.878Z,32.80
2022-09-23T09:46:01.428Z,34.00
2022-09-23T09:48:41.240Z,32.00
2022-09-23T09:51:21.530Z,32.60
2022-09-23T09:53:51.902Z,30.60
2022-09-23T09:56:22.954Z,31.20
2022-09-23T09:58:55.098Z,28.00
2022-09-23T10:01:33.245Z,30.20
2022-09-23T10:04:23.752Z,32.00
2022-09-23T10:07:12.893Z,33.20
2022-09-23T10:09:47.242Z,30.80
2022-09-23T10:12:18.591Z,29.80
2022-09-23T10:14:50.483Z,30.10
2022-09-23T10:17:23.261Z,28.50
2022-09-23T10:20:10.167Z,28.80
2022-09-23T10:22:42.778Z,28.70
2022-09-23T10:25:21.047Z,27.70
2022-09-23T10:27:47.467Z,26.40
2022-09-23T10:30:23.839Z,28.30
2022-09-23T10:32:53.264Z,28.10
2022-09-23T10:35:22.604Z,27.70
2022-09-23T10:37:59.593Z,27.60
2022-09-23T10:40:56.769Z,27.00
2022-09-23T10:43:48.749Z,28.30
2022-09-23T10:46:38.652Z,27.30
2022-09-23T10:49:19.620Z,28.20
2022-09-23T10:52:09.705Z,26.50
2022-09-23T10:55:04.792Z,27.50
2022-09-23T10:57:41.084Z,27.30
2022-09-23T11:00:29.353Z,25.50
2022-09-23T11:03:24.893Z,25.80
2022-09-23T11:06:00.797Z,25.50
2022-09-23T11:09:02.076Z,26.20
2022-09-23T11:11:41.358Z,25.30
2022-09-23T11:14:15.793Z,25.30
2022-09-23T11:17:15.021Z,26.20
2022-09-23T11:20:09.658Z,26.10
2022-09-23T11:23:07.116Z,26.70
2022-09-23T11:25:47.453Z,26.20
2022-09-23T11:29:07.254Z,25.60
2022-09-23T11:31:59.644Z,25.00
2022-09-23T11:34:52.632Z,25.30
2022-09-23T11:37:26.275Z,25.90
2022-09-23T11:40:03.410Z,25.20
2022-09-23T11:42:38.372Z,25.20
2022-09-23T11:45:16.378Z,26.30
2022-09-23T11:47:49.940Z,26.90
2022-09-23T11:50:29.574Z,26.40
2022-09-23T11:53:15.723Z,25.60
2022-09-23T11:56:02.000Z,25.40
2022-09-23T11:58:33.305Z,24.50
2022-09-23T12:01:07.071Z,25.30
2022-09-23T12:03:46.720Z,24.90
2022-09-23T12:06:18.519Z,23.80
2022-09-23T12:08:44.989Z,24.40
2022-09-23T12:11:42.563Z,24.70
2022-09-23T12:14:29.371Z,25.60
2022-09-23T12:17:14.786Z,25.30
2022-09-23T12:20:20.823Z,24.90
2022-09-23T12:23:13.212Z,24.40
2022-09-23T12:25:46.707Z,24.40
2022-09-23T12:28:19.052Z,24.80
2022-09-23T12:30:47.431Z,24.20
2022-09-23T12:33:26.142Z,24.90
2022-09-23T12:35:54.108Z,24.70
2022-09-23T12:38:26.938Z,23.70
2022-09-23T12:40:55.822Z,23.00
2022-09-23T12:43:30.075Z,22.80
2022-09-23T12:46:17.492Z,23.40
2022-09-23T12:48:57.734Z,23.90
2022-09-23T12:51:26.670Z,23.30
2022-09-23T12:54:05.300Z,23.90
2022-09-23T12:56:37.606Z,23.80
2022-09-23T12:59:16.414Z,23.90
2022-09-23T13:01:44.249Z,23.60
2022-09-23T13:04:52.504Z,22.70
2022-09-23T13:07:25.342Z,24.00
2022-09-23T13:09:55.468Z,24.40
2022-09-23T13:12:31.057Z,24.50
2022-09-23T13:15:03.378Z,24.60
2022-09-23T13:17:37.295Z,23.10
2022-09-23T13:20:34.831Z,23.50
2022-09-23T13:23:22.690Z,24.10
2022-09-23T13:25:52.030Z,24.00
2022-09-23T13:28:31.811Z,23.70
2022-09-23T13:30:58.981Z,23.50
2022-09-23T13:33:38.947Z,24.00
2022-09-23T13:36:12.043Z,23.70
2022-09-23T13:38:38.495Z,23.90
2022-09-23T13:41:11.219Z,24.50
2022-09-23T13:43:44.738Z,24.40
2022-09-23T13:46:19.966Z,23.60
2022-09-23T13:48:48.367Z,22.80
2022-09-23T13:51:27.212Z,22.80
2022-09-23T13:53:55.310Z,23.30
2022-09-23T13:56:22.670Z,23.40
2022-09-23T13:58:49.114Z,23.20
2022-09-23T14:01:34.057Z,23.20
2022-09-23T14:04:02.379Z,23.20
2022-09-23T14:06:37.897Z,23.70
2022-09-23T14:09:06.329Z,23.50
2022-09-23T14:11:35.388Z,24.20
2022-09-23T14:14:07.658Z,23.70
2022-09-23T14:16:40.195Z,23.30
2022-09-23T14:19:11.374Z,23.00
2022-09-23T14:21:39.848Z,22.80
2022-09-23T14:24:23.820Z,22.70
2022-09-23T14:26:56.423Z,23.40
2022-09-23T14:29:30.552Z,23.10
2022-09-23T14:32:00.639Z,23.60
2022-09-23T14:34:45.484Z,23.30
2022-09-23T14:37:36.686Z,23.70
2022-09-23T14:40:19.650Z,23.20
2022-09-23T14:42:52.137Z,22.80
2022-09-23T14:45:25.331Z,23.30
2022-09-23T14:47:57.991Z,23.30
2022-09-23T14:50:45.977Z,23.30
2022-09-23T14:53:24.598Z,23.00
2022-09-23T14:55:53.851Z,22.60
2022-09-23T14:58:25.149Z,22.70
2022-09-23T15:00:54.264Z,22.30
2022-09-23T15:03:21.582Z,22.10
2022-09-23T15:05:49.087Z,21.90
2022-09-23T15:08:21.396Z,21.50
2022-09-23T15:10:48.162Z,21.40
2022-09-23T15:13:18.255Z,21.40
2022-09-23T15:15:45.141Z,21.20
2022-09-23T15:18:22.252Z,21.00
2022-09-23T15:20:52.205Z,21.10
2022-09-23T15:23:40.983Z,20.80
2022-09-23T15:26:18.020Z,20.80
2022-09-23T15:28:45.672Z,20.70
2022-09-23T15:31:20.240Z,20.50
2022-09-23T15:33:47.959Z,20.30
2022-09-23T15:36:21.354Z,20.10
2022-09-23T15:38:47.988Z,19.80
2022-09-23T15:41:15.278Z,20.00
2022-09-23T15:43:42.128Z,19.90
2022-09-23T15:46:14.574Z,19.80
2022-09-23T15:48:44.565Z,19.60
2022-09-23T15:51:14.753Z,19.50
2022-09-23T15:53:41.213Z,19.50
2022-09-23T15:56:07.756Z,19.40
2022-09-23T15:58:34.177Z,19.20
2022-09-23T16:01:00.875Z,19.00
2022-09-23T16:03:30.450Z,18.90
2022-09-23T16:06:00.555Z,18.90
2022-09-23T16:08:28.198Z,18.50
2022-09-23T16:10:55.079Z,18.40
2022-09-23T16:13:21.844Z,18.30
2022-09-23T16:15:48.257Z,18.20
2022-09-23T16:18:14.776Z,18.30
2022-09-23T16:20:44.644Z,18.20
2022-09-23T16:23:34.312Z,18.20
2022-09-23T16:26:07.575Z,18.10
2022-09-23T16:28:34.522Z,17.90
2022-09-23T16:31:00.941Z,17.70
2022-09-23T16:33:27.745Z,17.60
2022-09-23T16:35:55.180Z,17.40
2022-09-23T16:38:21.621Z,16.80
2022-09-23T16:40:48.234Z,17.10
2022-09-23T16:43:14.792Z,17.20
2022-09-23T16:46:00.386Z,17.00
2022-09-23T16:48:28.613Z,17.10
2022-09-23T16:50:57.163Z,16.70
2022-09-23T16:53:28.494Z,16.70
2022-09-23T16:56:01.089Z,16.50
2022-09-23T16:58:27.522Z,16.30
2022-09-23T17:01:16.455Z,16.00
2022-09-23T17:03:43.015Z,16.00
2022-09-23T17:06:28.217Z,15.90
2022-09-23T17:08:54.912Z,15.70
2022-09-23T17:11:22.674Z,15.60
2022-09-23T17:13:57.116Z,15.40
2022-09-23T17:16:36.680Z,15.20
2022-09-23T17:19:14.940Z,15.00
2022-09-23T17:21:43.621Z,15.00
2022-09-23T17:24:12.842Z,14.80
2022-09-23T17:26:39.241Z,14.60
2022-09-23T17:29:19.347Z,14.40
2022-09-23T17:31:47.124Z,14.40
2022-09-23T17:34:20.093Z,14.10
2022-09-23T17:36:55.904Z,14.00
2022-09-23T17:39:22.489Z,13.70
2022-09-23T17:41:48.922Z,13.80
2022-09-23T17:44:17.849Z,13.60
2022-09-23T17:46:49.205Z,13.50
2022-09-23T17:49:15.670Z,13.50
2022-09-23T17:51:42.683Z,13.30
2022-09-23T17:54:10.092Z,13.20
2022-09-23T17:56:36.545Z,13.00
2022-09-23T17:59:03.195Z,12.90
2022-09-23T18:01:29.974Z,12.70
2022-09-23T18:04:01.106Z,12.60
2022-09-23T18:06:31.763Z,12.60
2022-09-23T18:09:01.552Z,12.50
2022-09-23T18:11:30.087Z,12.50
2022-09-23T18:14:01.770Z,12.40
2022-09-23T18:16:36.949Z,12.40
2022-09-23T18:19:04.355Z,12.40
2022-09-23T18:21:33.098Z,12.50
2022-09-23T18:24:28.051Z,12.50
2022-09-23T18:26:49.318Z,12.50
2022-09-23T18:29:16.507Z,12.40
2022-09-23T18:31:45.582Z,12.30
2022-09-23T18:34:14.203Z,12.30
2022-09-23T18:36:40.686Z,12.30
2022-09-23T18:39:11.877Z,12.30
2022-09-23T18:41:38.989Z,12.30
2022-09-23T18:44:06.834Z,12.20
2022-09-23T18:46:34.411Z,12.20
2022-09-23T18:49:19.406Z,12.10
2022-09-23T18:51:56.963Z,12.00
2022-09-23T18:54:25.388Z,11.90
2022-09-23T18:56:55.036Z,11.90
2022-09-23T18:59:25.929Z,11.80
2022-09-23T19:01:54.938Z,11.60
2022-09-23T19:04:24.473Z,11.60
2022-09-23T19:06:51.075Z,11.40
2022-09-23T19:09:18.267Z,11.30
2022-09-23T19:11:45.228Z,11.30
2022-09-23T19:14:12.728Z,11.30
2022-09-23T19:16:40.565Z,11.20
2022-09-23T19:19:07.730Z,11.20
2022-09-23T19:21:34.996Z,11.20
2022-09-23T19:24:07.094Z,11.00
2022-09-23T19:26:43.161Z,10.90
2022-09-23T19:29:16.737Z,11.00
2022-09-23T19:31:43.835Z,11.00
2022-09-23T19:34:18.525Z,11.00
2022-09-23T19:36:47.016Z,10.90
2022-09-23T19:39:19.331Z,10.90
2022-09-23T19:41:48.954Z,10.80
2022-09-23T19:44:16.440Z,10.80
2022-09-23T19:46:45.434Z,10.90
2022-09-23T19:49:12.280Z,10.80
2022-09-23T19:51:39.031Z,10.80
2022-09-23T19:54:07.271Z,10.70
2022-09-23T19:56:34.585Z,10.80
2022-09-23T19:59:03.236Z,10.80
2022-09-23T20:01:32.082Z,10.70
2022-09-23T20:04:00.188Z,10.80
2022-09-23T20:06:31.438Z,10.70
2022-09-23T20:09:01.996Z,10.60
2022-09-23T20:11:29.152Z,10.60
2022-09-23T20:14:09.529Z,10.70
2022-09-23T20:16:37.264Z,10.60
2022-09-23T20:19:05.501Z,10.60
2022-09-23T20:21:33.444Z,10.50
2022-09-23T20:24:00.098Z,10.50
2022-09-23T20:26:45.078Z,10.50
2022-09-23T20:29:11.557Z,10.50
2022-09-23T20:31:40.250Z,10.30
2022-09-23T20:34:08.144Z,10.30
2022-09-23T20:36:36.132Z,10.30
2022-09-23T20:39:08.689Z,10.30
2022-09-23T20:41:37.832Z,10.30
2022-09-23T20:44:07.721Z,10.30
2022-09-23T20:46:34.771Z,10.30
2022-09-23T20:49:01.922Z,10.30
2022-09-23T20:51:28.721Z,10.30
2022-09-23T20:53:55.229Z,10.30
2022-09-23T20:56:22.148Z,10.30
2022-09-23T20:58:50.434Z,10.30
2022-09-23T21:01:17.383Z,10.30
2022-09-23T21:03:46.424Z,10.20
2022-09-23T21:06:18.007Z,10.20
2022-09-23T21:08:44.634Z,10.20
2022-09-23T21:11:13.697Z,10.20
2022-09-23T21:13:46.117Z,10.20
2022-09-23T21:16:13.159Z,10.20
2022-09-23T21:18:39.643Z,10.20
2022-09-23T21:21:06.472Z,10.20
2022-09-23T21:23:34.850Z,10.30
2022-09-23T21:26:06.613Z,10.30
2022-09-23T21:28:38.549Z,10.30
2022-09-23T21:31:08.401Z,10.30
2022-09-23T21:33:37.657Z,10.20
2022-09-23T21:36:06.019Z,10.30
2022-09-23T21:38:39.030Z,10.20
2022-09-23T21:41:07.986Z,10.20
2022-09-23T21:43:37.287Z,10.30
2022-09-23T21:46:05.775Z,10.20
2022-09-23T21:48:34.308Z,10.30
2022-09-23T21:51:05.579Z,10.20
2022-09-23T21:53:33.587Z,10.30
2022-09-23T21:56:06.202Z,10.20
2022-09-23T21:58:34.437Z,10.20
2022-09-23T22:01:02.185Z,10.20
2022-09-23T22:03:28.811Z,10.30
2022-09-23T22:06:21.325Z,10.20
2022-09-23T22:08:49.984Z,10.20
2022-09-23T22:11:37.793Z,10.20
2022-09-23T22:14:07.225Z,10.20
2022-09-23T22:16:35.947Z,10.20
2022-09-23T22:19:06.787Z,10.20
2022-09-23T22:21:38.206Z,10.20
2022-09-23T22:24:07.434Z,10.30
2022-09-23T22:26:36.746Z,10.20
2022-09-23T22:29:23.514Z,10.10
2022-09-23T22:32:08.577Z,10.10
2022-09-23T22:34:49.450Z,10.20
2022-09-23T22:37:20.108Z,10.20
2022-09-23T22:39:47.013Z,10.30
2022-09-23T22:42:14.501Z,10.10
2022-09-23T22:44:40.988Z,10.10
2022-09-23T22:47:09.174Z,10.20
2022-09-23T22:49:35.599Z,10.30
2022-09-23T22:52:04.009Z,10.30
2022-09-23T22:54:33.982Z,10.30
2022-09-23T22:57:03.924Z,10.40
2022-09-23T22:59:30.368Z,10.40
2022-09-23T23:01:58.860Z,10.30
2022-09-23T23:04:25.723Z,10.40
2022-09-23T23:06:52.365Z,10.40
2022-09-23T23:09:19.233Z,10.40
2022-09-23T23:11:47.051Z,10.40
2022-09-23T23:14:16.188Z,10.40
2022-09-23T23:16:43.705Z,10.40
2022-09-23T23:19:13.361Z,10.40
2022-09-23T23:21:43.271Z,10.50
2022-09-23T23:24:21.747Z,10.50
2022-09-23T23:26:48.828Z,10.40
2022-09-23T23:29:17.688Z,10.50
2022-09-23T23:31:44.838Z,10.50
2022-09-23T23:34:16.870Z,10.50
2022-09-23T23:36:44.375Z,10.40
2022-09-23T23:39:11.744Z,10.40
2022-09-23T23:41:39.395Z,10.50
2022-09-23T23:44:06.417Z,10.50
2022-09-23T23:46:33.127Z,10.50
2022-09-23T23:49:00.346Z,10.50
2022-09-23T23:51:27.292Z,10.50
2022-09-23T23:53:54.771Z,10.40
2022-09-23T23:56:23.301Z,10.40
2022-09-23T23:58:57.933Z,10.40
